Time;durP1;ratioP1;P1;durP2;ratioP2;P2;SDS_P1;SDS_P2;PMS_P1;PMS_P2;Temp;Humidity;BMP_temperature;BMP_pressure;BME280_temperature;BME280_humidity;BME280_pressure;Samples;Min_cycle;Max_cycle;Signal;HPM_P1;HPM_P2
2022/08/28 00:00:14;;;;;;;;;;;22.80;96.90;22.80;99220.00;;;;347561;28;83486;-92
2022/08/28 00:00:26;;;;;;;;;;;22.80;96.90;22.80;99232.00;;;;345810;28;91376;-92
2022/08/28 00:00:39;;;;;;;;;;;22.80;96.90;22.90;99229.00;;;;343522;28;82581;-92
2022/08/28 00:00:51;;;;;;;;;;;22.80;96.90;22.80;99231.00;;;;345624;28;91246;-92
2022/08/28 00:01:03;;;;;;;;;;;22.80;96.90;22.80;99229.00;;;;344745;28;83339;-92
2022/08/28 00:01:15;;;;;;;;;;;22.80;96.90;22.90;99229.00;;;;341665;28;92533;-91
2022/08/28 00:01:27;;;;;;;;;;;22.80;96.90;22.80;99229.00;;;;347290;28;83471;-92
2022/08/28 00:01:38;;;;;;;;;;;22.80;96.90;22.70;99228.00;;;;345491;28;91894;-92
2022/08/28 00:01:50;;;;;;;;;;;22.80;96.90;22.70;99224.00;;;;341978;28;83489;-92
2022/08/28 00:02:02;;;;;;;;;;;22.80;96.90;22.80;99231.00;;;;344424;28;90897;-92
2022/08/28 00:02:14;;;;;;;;;;;22.80;96.90;22.80;99224.00;;;;347586;27;82508;-91
2022/08/28 00:02:26;;;;;;;;;;;22.80;96.90;22.80;99228.00;;;;347156;28;91345;-91
2022/08/28 00:02:38;;;;;;;;;;;22.80;96.90;22.90;99229.00;;;;344813;28;82493;-92
2022/08/28 00:02:50;;;;;;;;;;;22.80;96.90;22.90;99226.00;;;;344404;28;90862;-92
2022/08/28 00:03:02;;;;;;;;;;;22.80;96.90;22.90;99234.00;;;;346111;28;83479;-91
2022/08/28 00:03:16;;;;;;;;;;;22.80;96.90;22.80;99226.00;;;;343006;28;92333;-91
2022/08/28 00:03:28;;;;;;;;;;;22.80;97.10;22.80;99231.00;;;;344762;28;83976;-91
2022/08/28 00:03:41;;;;;;;;;;;22.80;96.90;22.80;99236.00;;;;344076;28;91514;-92
2022/08/28 00:03:53;;;;;;;;;;;22.80;96.90;22.70;99225.00;;;;342076;28;83507;-91
2022/08/28 00:04:05;;;;;;;;;;;22.80;97.00;22.70;99231.00;;;;345636;28;89851;-91
2022/08/28 00:04:17;;;;;;;;;;;22.80;97.00;22.70;99228.00;;;;346204;28;83387;-92
2022/08/28 00:04:29;;;;;;;;;;;22.80;96.90;22.80;99228.00;;;;345555;28;91510;-92
2022/08/28 00:04:41;;;;;;;;;;;22.80;97.00;22.80;99226.00;;;;347363;28;83409;-92
2022/08/28 00:04:53;;;;;;;;;;;22.80;97.00;22.80;99228.00;;;;344297;28;91851;-92
2022/08/28 00:05:06;;;;;;;;;;;22.80;97.00;22.80;99222.00;;;;347510;28;82464;-91
2022/08/28 00:05:18;;;;;;;;;;;22.80;97.00;22.80;99228.00;;;;344353;28;91319;-91
2022/08/28 00:05:30;;;;;;;;;;;22.80;97.00;22.80;99231.00;;;;344750;28;83342;-91
2022/08/28 00:05:42;;;;;;;;;;;22.80;97.10;22.80;99230.00;;;;347004;28;90467;-92
2022/08/28 00:05:55;;;;;;;;;;;22.80;97.00;22.80;99220.00;;;;344681;28;83364;-92
2022/08/28 00:06:07;;;;;;;;;;;22.80;97.00;22.80;99236.00;;;;345752;28;90142;-91
2022/08/28 00:06:19;;;;;;;;;;;22.80;97.30;22.80;99233.00;;;;347474;28;82540;-92
2022/08/28 00:06:31;;;;;;;;;;;22.80;97.00;22.80;99225.00;;;;345728;28;90626;-91
2022/08/28 00:06:43;;;;;;;;;;;22.80;97.00;22.70;99225.00;;;;343378;28;83380;-90
2022/08/28 00:06:54;;;;;;;;;;;22.80;97.10;22.70;99226.00;;;;346990;28;90884;-91
2022/08/28 00:07:06;;;;;;;;;;;22.70;97.00;22.70;99223.00;;;;346168;28;83325;-91
2022/08/28 00:07:18;;;;;;;;;;;22.70;97.10;22.70;99227.00;;;;345710;28;91271;-91
2022/08/28 00:07:30;;;;;;;;;;;22.70;97.10;22.70;99224.00;;;;344772;28;82386;-91
2022/08/28 00:07:42;;;;;;;;;;;22.70;97.10;22.80;99234.00;;;;342950;28;91578;-91
2022/08/28 00:07:58;;;;;;;;;;;22.70;97.00;22.80;99228.00;;;;348648;27;83490;-91
2022/08/28 00:08:11;;;;;;;;;;;22.80;97.10;22.80;99231.00;;;;342892;28;91547;-91
2022/08/28 00:08:23;;;;;;;;;;;22.70;97.20;22.80;99234.00;;;;341966;28;83502;-92
2022/08/28 00:08:35;;;;;;;;;;;22.70;97.10;22.70;99232.00;;;;345674;28;92433;-91
2022/08/28 00:08:47;;;;;;;;;;;22.80;97.10;22.70;99229.00;;;;347683;28;82313;-91
2022/08/28 00:08:58;;;;;;;;;;;22.70;97.10;22.70;99226.00;;;;348385;27;92052;-92
2022/08/28 00:09:11;;;;;;;;;;;22.70;97.20;22.80;99227.00;;;;342100;28;83418;-91
2022/08/28 00:09:22;;;;;;;;;;;22.70;97.20;22.80;99228.00;;;;345648;28;93069;-91
2022/08/28 00:09:34;;;;;;;;;;;22.70;97.20;22.80;99224.00;;;;344682;28;83321;-91
2022/08/28 00:09:46;;;;;;;;;;;22.70;97.10;22.80;99225.00;;;;341586;28;91908;-92
2022/08/28 00:09:58;;;;;;;;;;;22.70;97.10;22.80;99229.00;;;;346090;28;83467;-91
2022/08/28 00:10:10;;;;;;;;;;;22.70;97.10;22.70;99227.00;;;;345770;28;90423;-91
2022/08/28 00:10:22;;;;;;;;;;;22.80;97.20;22.80;99232.00;;;;346153;28;82509;-91
2022/08/28 00:10:34;;;;;;;;;;;22.70;97.10;22.80;99233.00;;;;347051;28;91755;-91
2022/08/28 00:10:47;;;;;;;;;;;22.70;97.10;22.80;99228.00;;;;344855;28;83324;-91
2022/08/28 00:10:58;;;;;;;;;;;22.70;97.10;22.80;99230.00;;;;344202;28;90176;-92
2022/08/28 00:11:10;;;;;;;;;;;22.70;97.10;22.80;99236.00;;;;346181;28;83388;-92
2022/08/28 00:11:22;;;;;;;;;;;22.70;97.10;22.80;99235.00;;;;344276;28;90134;-91
2022/08/28 00:11:37;;;;;;;;;;;22.70;97.20;22.80;99223.00;;;;344594;28;82538;-91
2022/08/28 00:11:49;;;;;;;;;;;22.70;97.10;22.80;99231.00;;;;348502;27;90150;-92
2022/08/28 00:12:01;;;;;;;;;;;22.70;97.10;22.80;99227.00;;;;346069;28;83463;-91
2022/08/28 00:12:13;;;;;;;;;;;22.70;97.20;22.70;99227.00;;;;344264;28;90358;-90
2022/08/28 00:12:25;;;;;;;;;;;22.70;97.10;22.70;99231.00;;;;344755;28;83339;-92
2022/08/28 00:12:38;;;;;;;;;;;22.70;97.10;22.80;99230.00;;;;345725;28;90762;-91
2022/08/28 00:12:51;;;;;;;;;;;22.70;97.10;22.80;99231.00;;;;344849;28;82320;-91
2022/08/28 00:13:02;;;;;;;;;;;22.70;97.10;22.80;99235.00;;;;342801;28;90543;-91
2022/08/28 00:13:17;;;;;;;;;;;22.70;97.10;22.80;99236.00;;;;346143;28;83537;-91
2022/08/28 00:13:30;;;;;;;;;;;22.70;97.10;22.80;99225.00;;;;344094;28;92868;-92
2022/08/28 00:13:42;;;;;;;;;;;22.80;97.10;22.80;99234.00;;;;343351;28;83445;-92
2022/08/28 00:13:53;;;;;;;;;;;22.80;97.10;22.80;99230.00;;;;341623;28;90434;-92
2022/08/28 00:14:08;;;;;;;;;;;22.80;97.10;22.80;99230.00;;;;348992;27;82568;-92
2022/08/28 00:14:20;;;;;;;;;;;22.80;97.00;22.80;99227.00;;;;347031;27;88997;-92
2022/08/28 00:14:32;;;;;;;;;;;22.80;97.10;22.70;99231.00;;;;344375;28;83394;-92
2022/08/28 00:14:44;;;;;;;;;;;22.70;97.10;22.70;99233.00;;;;345729;28;89052;-92
2022/08/28 00:14:56;;;;;;;;;;;22.70;97.10;22.80;99226.00;;;;344701;28;83521;-91
2022/08/28 00:15:10;;;;;;;;;;;22.70;97.10;22.80;99233.00;;;;344285;28;90489;-92
2022/08/28 00:15:26;;;;;;;;;;;22.80;97.10;22.70;99233.00;;;;344648;28;82627;-91
2022/08/28 00:15:41;;;;;;;;;;;22.70;97.10;22.80;99232.00;;;;345502;28;92938;-92
2022/08/28 00:15:57;;;;;;;;;;;22.70;97.10;22.80;99235.00;;;;346120;28;83367;-91
2022/08/28 00:16:09;;;;;;;;;;;22.70;97.10;22.70;99237.00;;;;342924;28;91429;-92
2022/08/28 00:16:20;;;;;;;;;;;22.70;97.10;22.80;99231.00;;;;343319;28;83265;-91
2022/08/28 00:16:37;;;;;;;;;;;22.70;97.20;22.80;99232.00;;;;345731;28;90222;-92
2022/08/28 00:16:49;;;;;;;;;;;22.70;97.30;22.80;99236.00;;;;347511;28;82510;-92
2022/08/28 00:17:01;;;;;;;;;;;22.70;97.20;22.70;99240.00;;;;341300;28;89858;-91
2022/08/28 00:17:13;;;;;;;;;;;22.70;97.20;22.70;99237.00;;;;344674;28;83421;-92
2022/08/28 00:17:25;;;;;;;;;;;22.70;97.20;22.80;99233.00;;;;345688;28;90620;-92
2022/08/28 00:17:37;;;;;;;;;;;22.70;97.20;22.80;99233.00;;;;344596;28;83306;-91
2022/08/28 00:17:49;;;;;;;;;;;22.70;97.20;22.80;99229.00;;;;344162;28;92933;-92
2022/08/28 00:18:02;;;;;;;;;;;22.70;97.20;22.80;99229.00;;;;344643;28;83391;-91
2022/08/28 00:18:14;;;;;;;;;;;22.70;97.10;22.80;99228.00;;;;346999;27;90118;-92
2022/08/28 00:18:27;;;;;;;;;;;22.70;97.10;22.70;99231.00;;;;346139;28;82466;-91
2022/08/28 00:18:39;;;;;;;;;;;22.70;97.20;22.70;99233.00;;;;342900;28;90953;-91
2022/08/28 00:18:51;;;;;;;;;;;22.70;97.20;22.70;99234.00;;;;349009;27;82479;-91
2022/08/28 00:19:03;;;;;;;;;;;22.70;97.10;22.70;99233.00;;;;347007;27;89742;-92
2022/08/28 00:19:16;;;;;;;;;;;22.70;97.10;22.80;99229.00;;;;342052;28;83407;-91
2022/08/28 00:19:28;;;;;;;;;;;22.70;97.10;22.80;99240.00;;;;344340;28;91356;-91
2022/08/28 00:19:40;;;;;;;;;;;22.70;97.10;22.70;99234.00;;;;346131;28;83352;-92
2022/08/28 00:19:51;;;;;;;;;;;22.70;97.10;22.70;99236.00;;;;342907;28;91870;-92
2022/08/28 00:20:04;;;;;;;;;;;22.70;97.20;22.70;99234.00;;;;348596;27;82473;-92
2022/08/28 00:20:17;;;;;;;;;;;22.70;97.10;22.70;99235.00;;;;349657;27;90888;-92
2022/08/28 00:20:29;;;;;;;;;;;22.70;97.10;22.70;99233.00;;;;346136;28;82462;-92
2022/08/28 00:20:41;;;;;;;;;;;22.70;97.10;22.80;99234.00;;;;345429;28;90120;-91
2022/08/28 00:20:53;;;;;;;;;;;22.70;97.30;22.80;99231.00;;;;344748;28;83299;-91
2022/08/28 00:21:05;;;;;;;;;;;22.70;97.10;22.70;99236.00;;;;345636;28;91213;-92
2022/08/28 00:21:16;;;;;;;;;;;22.70;97.20;22.60;99235.00;;;;348914;27;83330;-92
2022/08/28 00:21:28;;;;;;;;;;;22.70;97.20;22.60;99230.00;;;;347085;28;90212;-91
2022/08/28 00:21:41;;;;;;;;;;;22.70;97.20;22.70;99235.00;;;;346030;28;83518;-92
2022/08/28 00:21:53;;;;;;;;;;;22.70;97.20;22.70;99233.00;;;;344161;28;92408;-92
2022/08/28 00:22:06;;;;;;;;;;;22.70;97.20;22.70;99229.00;;;;344562;28;83416;-91
2022/08/28 00:22:18;;;;;;;;;;;22.70;97.20;22.70;99232.00;;;;344293;28;90309;-91
2022/08/28 00:22:30;;;;;;;;;;;22.70;97.20;22.80;99227.00;;;;341955;28;82486;-91
2022/08/28 00:22:41;;;;;;;;;;;22.70;97.20;22.70;99237.00;;;;345485;28;90283;-92
2022/08/28 00:22:54;;;;;;;;;;;22.70;97.20;22.70;99236.00;;;;347340;28;83427;-91
2022/08/28 00:23:06;;;;;;;;;;;22.70;97.20;22.70;99225.00;;;;347064;28;90839;-91
2022/08/28 00:23:18;;;;;;;;;;;22.70;97.20;22.70;99228.00;;;;346141;28;83447;-91
2022/08/28 00:23:31;;;;;;;;;;;22.70;97.20;22.60;99227.00;;;;342872;28;91860;-91
2022/08/28 00:23:53;;;;;;;;;;;22.70;97.20;22.70;99235.00;;;;346089;28;83519;-91
2022/08/28 00:24:05;;;;;;;;;;;22.70;97.20;22.80;99230.00;;;;346958;28;91749;-92
2022/08/28 00:24:17;;;;;;;;;;;22.70;97.20;22.80;99226.00;;;;346078;28;82446;-91
2022/08/28 00:24:29;;;;;;;;;;;22.70;97.20;22.80;99229.00;;;;345706;28;91561;-92
2022/08/28 00:24:43;;;;;;;;;;;22.70;97.20;22.70;99228.00;;;;347533;28;83358;-91
2022/08/28 00:24:55;;;;;;;;;;;22.70;97.20;22.60;99230.00;;;;346963;28;91171;-92
2022/08/28 00:25:08;;;;;;;;;;;22.70;97.20;22.70;99228.00;;;;346082;28;83370;-91
2022/08/28 00:25:22;;;;;;;;;;;22.70;97.20;22.70;99228.00;;;;344342;28;91167;-92
2022/08/28 00:25:34;;;;;;;;;;;22.70;97.20;22.70;99226.00;;;;347429;28;82456;-91
2022/08/28 00:25:46;;;;;;;;;;;22.70;97.20;22.80;99234.00;;;;347096;28;88994;-91
2022/08/28 00:25:58;;;;;;;;;;;22.70;97.20;22.80;99231.00;;;;344773;28;83233;-92
2022/08/28 00:27:51;;;;;;;;;;;22.70;97.20;22.80;99225.00;;;;344138;28;92334;-91
2022/08/28 00:27:52;;;;;;;;;;;22.70;97.20;22.70;99234.00;;;;343378;28;82566;-91
2022/08/28 00:28:08;;;;;;;;;;;22.70;97.20;22.70;99230.00;;;;341640;28;91467;-91
2022/08/28 00:28:20;;;;;;;;;;;22.70;97.20;22.70;99236.00;;;;346036;28;83487;-92
2022/08/28 00:28:35;;;;;;;;;;;22.70;97.20;22.70;99225.00;;;;344227;28;91340;-92
2022/08/28 00:28:47;;;;;;;;;;;22.70;97.30;22.60;99232.00;;;;344758;28;83343;-92
2022/08/28 00:28:59;;;;;;;;;;;22.70;97.30;22.60;99230.00;;;;342910;28;91537;-92
2022/08/28 00:29:11;;;;;;;;;;;22.60;97.20;22.60;99229.00;;;;344716;28;83364;-91
2022/08/28 00:29:23;;;;;;;;;;;22.60;97.20;22.60;99236.00;;;;343883;28;92516;-92
2022/08/28 00:29:35;;;;;;;;;;;22.60;97.20;22.60;99230.00;;;;346093;28;83353;-91
2022/08/28 00:29:47;;;;;;;;;;;22.60;97.30;22.60;99238.00;;;;344260;28;91003;-92
2022/08/28 00:29:59;;;;;;;;;;;22.60;97.30;22.60;99226.00;;;;346101;28;83299;-92
2022/08/28 00:30:11;;;;;;;;;;;22.60;97.40;22.70;99228.00;;;;347004;28;91306;-91
2022/08/28 00:30:35;;;;;;;;;;;22.60;97.40;22.70;99232.00;;;;344666;28;83475;-91
2022/08/28 00:30:49;;;;;;;;;;;22.60;97.40;22.70;99234.00;;;;345714;28;90984;-91
2022/08/28 00:31:01;;;;;;;;;;;22.60;97.30;22.70;99236.00;;;;347250;28;83487;-91
2022/08/28 00:31:13;;;;;;;;;;;22.60;97.40;22.70;99235.00;;;;342881;28;91025;-91
2022/08/28 00:31:25;;;;;;;;;;;22.60;97.40;22.70;99239.00;;;;346017;28;82546;-91
2022/08/28 00:31:38;;;;;;;;;;;22.60;97.30;22.60;99229.00;;;;348318;27;91209;-91
2022/08/28 00:31:50;;;;;;;;;;;22.60;97.40;22.70;99232.00;;;;347483;28;82553;-91
2022/08/28 00:32:02;;;;;;;;;;;22.60;97.30;22.60;99235.00;;;;347050;28;90441;-91
2022/08/28 00:32:14;;;;;;;;;;;22.60;97.30;22.60;99228.00;;;;344672;28;83996;-91
2022/08/28 00:32:26;;;;;;;;;;;22.60;97.30;22.60;99230.00;;;;344273;28;89826;-91
2022/08/28 00:32:38;;;;;;;;;;;22.60;97.30;22.60;99233.00;;;;343312;28;83381;-91
2022/08/28 00:32:50;;;;;;;;;;;22.60;97.30;22.70;99231.00;;;;341543;28;91540;-92
2022/08/28 00:33:05;;;;;;;;;;;22.60;97.30;22.60;99239.00;;;;345779;28;83380;-92
2022/08/28 00:33:21;;;;;;;;;;;22.60;97.30;22.60;99234.00;;;;347039;28;90842;-91
2022/08/28 00:33:33;;;;;;;;;;;22.60;97.40;22.60;99235.00;;;;346040;28;83471;-91
2022/08/28 00:33:45;;;;;;;;;;;22.60;97.30;22.60;99234.00;;;;346936;28;92243;-92
2022/08/28 00:34:01;;;;;;;;;;;22.60;97.30;22.70;99236.00;;;;347577;28;83421;-91
2022/08/28 00:34:13;;;;;;;;;;;22.60;97.30;22.60;99235.00;;;;345655;28;90879;-92
2022/08/28 00:34:26;;;;;;;;;;;22.60;97.40;22.60;99231.00;;;;346071;28;83347;-91
2022/08/28 00:34:44;;;;;;;;;;;22.60;97.40;22.50;99235.00;;;;348415;27;90514;-92
2022/08/28 00:34:56;;;;;;;;;;;22.60;97.40;22.50;99240.00;;;;346064;28;83348;-91
2022/08/28 00:35:08;;;;;;;;;;;22.60;97.40;22.50;99232.00;;;;344323;28;90171;-91
2022/08/28 00:35:22;;;;;;;;;;;22.50;97.40;22.50;99231.00;;;;346152;28;83296;-91
2022/08/28 00:35:35;;;;;;;;;;;22.60;97.40;22.60;99236.00;;;;342911;28;90275;-92
2022/08/28 00:35:47;;;;;;;;;;;22.50;97.40;22.50;99231.00;;;;344625;28;83359;-91
2022/08/28 00:35:59;;;;;;;;;;;22.60;97.50;22.40;99228.00;;;;345524;28;92509;-91
2022/08/28 00:36:11;;;;;;;;;;;22.50;97.40;22.50;99229.00;;;;347305;28;83327;-91
2022/08/28 00:36:23;;;;;;;;;;;22.50;97.40;22.50;99239.00;;;;346836;28;90416;-91
2022/08/28 00:36:35;;;;;;;;;;;22.50;97.50;22.50;99230.00;;;;344688;28;83521;-91
2022/08/28 00:36:47;;;;;;;;;;;22.50;97.40;22.50;99233.00;;;;344268;28;90881;-91
2022/08/28 00:36:59;;;;;;;;;;;22.50;97.50;22.50;99236.00;;;;347416;28;83386;-92
2022/08/28 00:37:11;;;;;;;;;;;22.50;97.50;22.60;99224.00;;;;349787;27;90821;-92
2022/08/28 00:37:23;;;;;;;;;;;22.50;97.40;22.60;99234.00;;;;344677;28;83521;-91
2022/08/28 00:37:35;;;;;;;;;;;22.50;97.50;22.60;99237.00;;;;344165;28;91467;-91
2022/08/28 00:37:47;;;;;;;;;;;22.50;97.50;22.60;99229.00;;;;344646;28;83399;-92
2022/08/28 00:37:59;;;;;;;;;;;22.50;97.50;22.60;99225.00;;;;341547;28;91760;-91
2022/08/28 00:38:11;;;;;;;;;;;22.50;97.40;22.60;99229.00;;;;346143;28;83332;-92
2022/08/28 00:38:25;;;;;;;;;;;22.50;97.40;22.60;99230.00;;;;344184;28;91522;-92
2022/08/28 00:38:37;;;;;;;;;;;22.50;97.50;22.60;99231.00;;;;345920;28;83943;-92
2022/08/28 00:38:52;;;;;;;;;;;22.50;97.40;22.60;99236.00;;;;344238;28;90342;-91
2022/08/28 00:39:05;;;;;;;;;;;22.50;97.40;22.50;99238.00;;;;346065;28;83523;-92
2022/08/28 00:39:17;;;;;;;;;;;22.50;97.50;22.60;99232.00;;;;345682;28;90358;-92
2022/08/28 00:39:30;;;;;;;;;;;22.50;97.40;22.60;99229.00;;;;343329;28;83569;-91
2022/08/28 00:39:43;;;;;;;;;;;22.50;97.40;22.60;99234.00;;;;348356;27;91795;-91
2022/08/28 00:39:54;;;;;;;;;;;22.50;97.40;22.60;99226.00;;;;347257;28;83434;-91
2022/08/28 00:40:07;;;;;;;;;;;22.50;97.50;22.60;99232.00;;;;345559;28;92545;-92
2022/08/28 00:40:20;;;;;;;;;;;22.50;97.50;22.70;99228.00;;;;347458;28;83508;-92
2022/08/28 00:40:44;;;;;;;;;;;22.50;97.40;22.60;99233.00;;;;344324;28;91171;-91
2022/08/28 00:40:58;;;;;;;;;;;22.50;97.40;22.60;99231.00;;;;345936;28;83393;-92
2022/08/28 00:41:11;;;;;;;;;;;22.50;97.40;22.60;99229.00;;;;345626;28;90167;-91
2022/08/28 00:41:30;;;;;;;;;;;22.60;97.40;22.60;99232.00;;;;348924;27;82592;-90
2022/08/28 00:41:42;;;;;;;;;;;22.50;97.30;22.60;99232.00;;;;344170;28;91364;-91
2022/08/28 00:41:54;;;;;;;;;;;22.60;97.40;22.60;99228.00;;;;344583;28;82404;-91
2022/08/28 00:42:09;;;;;;;;;;;22.50;97.50;22.60;99232.00;;;;345770;28;87758;-91
2022/08/28 00:42:20;;;;;;;;;;;22.50;97.50;22.50;99228.00;;;;346021;28;83245;-92
2022/08/28 00:42:33;;;;;;;;;;;22.50;97.40;22.60;99228.00;;;;348357;27;90788;-91
2022/08/28 00:42:48;;;;;;;;;;;22.50;97.40;22.60;99232.00;;;;344697;28;83454;-92
2022/08/28 00:43:04;;;;;;;;;;;22.50;97.40;22.60;99231.00;;;;345593;28;91391;-92
2022/08/28 00:43:35;;;;;;;;;;;22.50;97.40;22.50;99233.00;;;;348947;27;83332;-92
2022/08/28 00:43:48;;;;;;;;;;;22.50;97.50;22.60;99230.00;;;;344238;28;91630;-91
2022/08/28 00:44:12;;;;;;;;;;;22.50;97.50;22.60;99231.00;;;;347508;28;82341;-91
2022/08/28 00:44:25;;;;;;;;;;;22.50;97.50;22.60;99233.00;;;;346960;28;92072;-91
2022/08/28 00:44:37;;;;;;;;;;;22.50;97.50;22.60;99230.00;;;;344621;28;83487;-91
2022/08/28 00:44:49;;;;;;;;;;;22.50;97.50;22.50;99234.00;;;;346861;28;92111;-91
2022/08/28 00:45:01;;;;;;;;;;;22.50;97.50;22.50;99226.00;;;;344782;28;82481;-91
2022/08/28 00:45:16;;;;;;;;;;;22.50;97.50;22.50;99236.00;;;;342946;28;92504;-92
2022/08/28 00:45:28;;;;;;;;;;;22.50;97.50;22.60;99240.00;;;;344824;28;82430;-92
2022/08/28 00:45:40;;;;;;;;;;;22.50;97.50;22.60;99231.00;;;;348551;27;90417;-91
2022/08/28 00:45:52;;;;;;;;;;;22.50;97.50;22.60;99237.00;;;;346284;28;83212;-92
2022/08/28 00:46:08;;;;;;;;;;;22.50;97.50;22.40;99239.00;;;;344140;28;91667;-92
2022/08/28 00:46:21;;;;;;;;;;;22.50;97.50;22.40;99236.00;;;;347472;28;83437;-91
2022/08/28 00:46:33;;;;;;;;;;;22.50;97.50;22.40;99236.00;;;;345608;28;91706;-91
2022/08/28 00:46:46;;;;;;;;;;;22.50;97.50;22.40;99240.00;;;;344740;28;83394;-91
2022/08/28 00:46:58;;;;;;;;;;;22.50;97.80;22.50;99241.00;;;;347254;27;90445;-91
2022/08/28 00:47:10;;;;;;;;;;;22.40;97.60;22.50;99232.00;;;;347446;28;83333;-91
2022/08/28 00:47:25;;;;;;;;;;;22.40;97.60;22.50;99237.00;;;;344472;28;91342;-91
2022/08/28 00:47:38;;;;;;;;;;;22.50;97.70;22.50;99234.00;;;;348782;27;82516;-91
2022/08/28 00:47:49;;;;;;;;;;;22.50;97.60;22.60;99237.00;;;;345808;28;90477;-91
2022/08/28 00:48:01;;;;;;;;;;;22.50;97.60;22.50;99235.00;;;;344737;28;83003;-92
2022/08/28 00:48:13;;;;;;;;;;;22.50;97.60;22.50;99240.00;;;;345639;28;91503;-91
2022/08/28 00:48:25;;;;;;;;;;;22.40;97.60;22.50;99238.00;;;;344606;28;83305;-91
2022/08/28 00:48:37;;;;;;;;;;;22.40;97.60;22.60;99231.00;;;;344299;28;92014;-91
2022/08/28 00:48:49;;;;;;;;;;;22.40;97.60;22.50;99244.00;;;;344655;28;83318;-91
2022/08/28 00:49:01;;;;;;;;;;;22.40;97.90;22.40;99234.00;;;;342961;28;90307;-91
2022/08/28 00:49:14;;;;;;;;;;;22.40;97.60;22.50;99236.00;;;;344526;28;83446;-91
2022/08/28 00:49:29;;;;;;;;;;;22.40;97.60;22.50;99242.00;;;;347103;28;91184;-91
2022/08/28 00:49:50;;;;;;;;;;;22.40;97.50;22.60;99240.00;;;;346022;28;83421;-91
2022/08/28 00:50:03;;;;;;;;;;;22.50;97.60;22.60;99235.00;;;;347050;28;91512;-91
2022/08/28 00:50:18;;;;;;;;;;;22.40;97.50;22.60;99238.00;;;;344712;28;82456;-92
2022/08/28 00:52:04;;;;;;;;;;;22.50;97.50;22.60;99239.00;;;;345581;28;91189;-92
2022/08/28 00:52:06;;;;;;;;;;;22.50;97.50;22.60;99236.00;;;;343386;28;82550;-92
2022/08/28 00:52:19;;;;;;;;;;;22.50;97.50;22.50;99232.00;;;;342804;28;91706;-91
2022/08/28 00:52:31;;;;;;;;;;;22.50;97.50;22.50;99232.00;;;;344473;28;83184;-91
2022/08/28 00:52:46;;;;;;;;;;;22.50;97.50;22.40;99240.00;;;;341407;28;92239;-91
2022/08/28 00:52:59;;;;;;;;;;;22.50;97.60;22.40;99238.00;;;;343274;28;82436;-91
2022/08/28 00:53:10;;;;;;;;;;;22.50;97.60;22.50;99238.00;;;;343035;28;87643;-92
2022/08/28 00:53:22;;;;;;;;;;;22.50;97.60;22.50;99235.00;;;;344771;28;82511;-91
2022/08/28 00:53:41;;;;;;;;;;;22.50;97.60;22.60;99242.00;;;;344267;28;91136;-91
2022/08/28 00:53:53;;;;;;;;;;;22.50;97.60;22.60;99241.00;;;;345985;28;82510;-92
2022/08/28 00:54:09;;;;;;;;;;;22.50;97.60;22.60;99233.00;;;;344223;28;91467;-92
2022/08/28 00:54:21;;;;;;;;;;;22.50;97.60;22.60;99236.00;;;;348833;27;82291;-91
2022/08/28 00:54:47;;;;;;;;;;;22.40;97.60;22.50;99239.00;;;;344233;28;91863;-91
2022/08/28 00:55:14;;;;;;;;;;;22.40;97.60;22.60;99238.00;;;;346086;28;82462;-91
2022/08/28 00:55:27;;;;;;;;;;;22.50;97.60;22.60;99242.00;;;;346951;28;92677;-91
2022/08/28 00:55:38;;;;;;;;;;;22.50;97.60;22.60;99240.00;;;;344524;28;83481;-92
2022/08/28 00:55:50;;;;;;;;;;;22.40;97.50;22.50;99237.00;;;;344264;28;91817;-92
2022/08/28 00:56:05;;;;;;;;;;;22.40;97.60;22.40;99232.00;;;;344616;28;83437;-91
2022/08/28 00:56:23;;;;;;;;;;;22.40;97.60;22.50;99240.00;;;;342818;28;91405;-92
2022/08/28 00:56:37;;;;;;;;;;;22.40;97.60;22.60;99243.00;;;;344465;28;83515;-91
2022/08/28 00:56:49;;;;;;;;;;;22.40;97.60;22.60;99233.00;;;;345405;28;89246;-92
2022/08/28 00:57:05;;;;;;;;;;;22.50;97.70;22.50;99238.00;;;;343326;28;83389;-92
2022/08/28 00:57:19;;;;;;;;;;;22.40;97.60;22.50;99240.00;;;;347028;28;91506;-91
2022/08/28 00:57:40;;;;;;;;;;;22.50;97.60;22.50;99240.00;;;;344623;28;82466;-92
2022/08/28 00:57:55;;;;;;;;;;;22.50;97.70;22.50;99239.00;;;;344162;28;91139;-92
2022/08/28 00:58:07;;;;;;;;;;;22.40;97.60;22.50;99239.00;;;;346080;28;82338;-91
2022/08/28 00:58:19;;;;;;;;;;;22.50;97.60;22.60;99238.00;;;;345662;28;90266;-91
2022/08/28 00:58:31;;;;;;;;;;;22.40;97.60;22.60;99236.00;;;;345949;28;83342;-92
2022/08/28 00:58:43;;;;;;;;;;;22.40;97.70;22.60;99240.00;;;;345445;28;88910;-91
2022/08/28 00:58:56;;;;;;;;;;;22.40;97.70;22.60;99238.00;;;;345984;28;83540;-91
2022/08/28 00:59:10;;;;;;;;;;;22.50;97.70;22.60;99240.00;;;;345660;28;91617;-91
2022/08/28 00:59:23;;;;;;;;;;;22.40;97.60;22.60;99241.00;;;;346051;28;83482;-91
2022/08/28 00:59:36;;;;;;;;;;;22.50;97.60;22.60;99242.00;;;;348323;27;91952;-91
2022/08/28 00:59:48;;;;;;;;;;;22.50;97.60;22.60;99238.00;;;;347497;28;82428;-92
2022/08/28 01:00:04;;;;;;;;;;;22.50;97.60;22.60;99243.00;;;;344117;28;92536;-91
2022/08/28 01:00:22;;;;;;;;;;;22.50;97.60;22.60;99243.00;;;;346055;28;83333;-92
2022/08/28 01:00:35;;;;;;;;;;;22.50;97.90;22.60;99243.00;;;;344235;28;91630;-91
2022/08/28 01:00:46;;;;;;;;;;;22.50;97.60;22.60;99248.00;;;;348835;27;83366;-91
2022/08/28 01:00:59;;;;;;;;;;;22.50;97.50;22.70;99243.00;;;;344128;28;91009;-91
2022/08/28 01:01:12;;;;;;;;;;;22.50;97.50;22.60;99244.00;;;;344703;28;82452;-92
2022/08/28 01:01:24;;;;;;;;;;;22.50;97.60;22.60;99239.00;;;;346931;28;89926;-91
2022/08/28 01:01:37;;;;;;;;;;;22.50;97.50;22.60;99244.00;;;;345826;28;83435;-91
2022/08/28 01:01:53;;;;;;;;;;;22.50;97.50;22.60;99239.00;;;;344214;28;90270;-91
2022/08/28 01:02:06;;;;;;;;;;;22.50;97.50;22.60;99239.00;;;;348782;27;83181;-91
2022/08/28 01:02:18;;;;;;;;;;;22.50;97.50;22.60;99246.00;;;;348280;27;92482;-91
2022/08/28 01:02:30;;;;;;;;;;;22.50;97.40;22.60;99236.00;;;;343375;28;83410;-92
2022/08/28 01:02:42;;;;;;;;;;;22.50;97.40;22.60;99237.00;;;;345655;28;90250;-92
2022/08/28 01:02:54;;;;;;;;;;;22.50;97.50;22.60;99243.00;;;;346056;28;82573;-92
2022/08/28 01:03:06;;;;;;;;;;;22.50;97.50;22.70;99243.00;;;;343899;28;90210;-92
2022/08/28 01:03:18;;;;;;;;;;;22.50;97.50;22.70;99238.00;;;;346091;28;83465;-92
2022/08/28 01:03:36;;;;;;;;;;;22.50;97.50;22.60;99243.00;;;;344270;28;89344;-92
2022/08/28 01:03:48;;;;;;;;;;;22.50;97.50;22.50;99238.00;;;;343291;28;82430;-92
2022/08/28 01:04:01;;;;;;;;;;;22.50;97.50;22.60;99244.00;;;;345623;28;90136;-91
2022/08/28 01:04:17;;;;;;;;;;;22.50;97.50;22.50;99239.00;;;;344678;28;83434;-92
2022/08/28 01:04:31;;;;;;;;;;;22.50;97.50;22.50;99245.00;;;;342857;28;92779;-91
2022/08/28 01:04:43;;;;;;;;;;;22.50;97.50;22.50;99244.00;;;;345871;28;83466;-92
2022/08/28 01:04:55;;;;;;;;;;;22.50;97.60;22.40;99239.00;;;;342870;28;91513;-92
2022/08/28 01:05:08;;;;;;;;;;;22.50;97.60;22.40;99244.00;;;;344616;28;83376;-92
2022/08/28 01:05:20;;;;;;;;;;;22.50;97.70;22.50;99241.00;;;;344254;28;90323;-91
2022/08/28 01:05:33;;;;;;;;;;;22.40;97.60;22.50;99240.00;;;;345830;28;83330;-92
2022/08/28 01:05:48;;;;;;;;;;;22.50;97.60;22.60;99245.00;;;;344217;28;91154;-92
2022/08/28 01:06:00;;;;;;;;;;;22.50;97.60;22.50;99238.00;;;;343302;28;82425;-91
2022/08/28 01:06:12;;;;;;;;;;;22.50;97.60;22.60;99241.00;;;;340178;28;91984;-92
2022/08/28 01:06:24;;;;;;;;;;;22.50;97.60;22.60;99240.00;;;;344705;28;82354;-92
2022/08/28 01:06:36;;;;;;;;;;;22.50;97.60;22.50;99238.00;;;;345691;28;91265;-91
2022/08/28 01:06:51;;;;;;;;;;;22.50;97.60;22.40;99238.00;;;;340637;28;82549;-91
2022/08/28 01:07:07;;;;;;;;;;;22.40;97.60;22.50;99244.00;;;;343018;28;91939;-92
2022/08/28 01:07:22;;;;;;;;;;;22.40;97.50;22.50;99240.00;;;;344570;28;82477;-92
2022/08/28 01:07:37;;;;;;;;;;;22.50;97.60;22.60;99238.00;;;;345389;28;91354;-91
2022/08/28 01:07:49;;;;;;;;;;;22.50;97.60;22.50;99249.00;;;;341988;28;82512;-91